createdAt,value
2022-10-23T00:02:04.226Z,94583.91
2022-10-23T00:05:08.517Z,94573.88
2022-10-23T00:08:12.251Z,94580.97
2022-10-23T00:11:19.778Z,94579.59
2022-10-23T00:14:25.489Z,94590.47
2022-10-23T00:17:29.463Z,94596.34
2022-10-23T00:20:32.614Z,94607.13
2022-10-23T00:23:37.137Z,94616.38
2022-10-23T00:26:41.179Z,94620.28
2022-10-23T00:29:46.115Z,94626.31
2022-10-23T00:32:49.763Z,94623.03
2022-10-23T00:35:53.645Z,94629.78
2022-10-23T00:38:57.624Z,94631.16
2022-10-23T00:42:01.012Z,94626.25
2022-10-23T00:45:11.083Z,94621.94
2022-10-23T00:48:15.580Z,94619.16
2022-10-23T00:51:19.831Z,94624.72
2022-10-23T00:54:27.961Z,94616.38
2022-10-23T00:57:31.751Z,94615.81
2022-10-23T01:00:48.253Z,94615.47
2022-10-23T01:03:52.623Z,94615.06
2022-10-23T01:07:15.676Z,94612.91
2022-10-23T01:10:35.312Z,94608.66
2022-10-23T01:13:44.131Z,94603.63
2022-10-23T01:17:12.568Z,94598.53
2022-10-23T01:20:45.855Z,94596.34
2022-10-23T01:24:09.455Z,94591.94
2022-10-23T01:27:17.735Z,94593.22
2022-10-23T01:30:20.934Z,94583.66
2022-10-23T01:33:34.382Z,94577.81
2022-10-23T01:36:42.163Z,94583.38
2022-10-23T01:39:50.905Z,94582.31
2022-10-23T01:42:59.268Z,94582.72
2022-10-23T01:46:08.283Z,94578.00
2022-10-23T01:49:15.637Z,94571.03
2022-10-23T01:52:22.481Z,94582.75
2022-10-23T01:55:28.128Z,94580.59
2022-10-23T01:58:36.617Z,94574.38
2022-10-23T02:01:44.522Z,94576.94
2022-10-23T02:04:54.943Z,94571.06
2022-10-23T02:07:59.520Z,94562.63
2022-10-23T02:11:10.009Z,94566.50
2022-10-23T02:14:30.282Z,94570.06
2022-10-23T02:17:43.356Z,94583.00
2022-10-23T02:21:02.779Z,94571.03
2022-10-23T02:24:16.190Z,94569.38
2022-10-23T02:27:32.693Z,94554.75
2022-10-23T02:30:38.388Z,94553.03
2022-10-23T02:33:47.801Z,94550.63
2022-10-23T02:36:51.553Z,94540.56
2022-10-23T02:39:57.307Z,94536.56
2022-10-23T02:43:16.791Z,94518.09
2022-10-23T02:46:39.104Z,94503.53
2022-10-23T02:50:12.982Z,94498.88
2022-10-23T02:53:31.230Z,94513.84
2022-10-23T02:56:37.892Z,94528.72
2022-10-23T02:59:59.701Z,94522.13
2022-10-23T03:03:11.958Z,94518.16
2022-10-23T03:06:15.937Z,94497.75
2022-10-23T03:09:20.050Z,94496.41
2022-10-23T03:12:23.983Z,94497.16
2022-10-23T03:15:27.651Z,94494.31
2022-10-23T03:18:32.079Z,94484.28
2022-10-23T03:21:36.335Z,94473.88
2022-10-23T03:24:44.043Z,94469.88
2022-10-23T03:27:47.249Z,94460.94
2022-10-23T03:30:53.198Z,94462.50
2022-10-23T03:33:56.850Z,94452.22
2022-10-23T03:36:59.791Z,94449.28
2022-10-23T03:40:02.765Z,94445.81
2022-10-23T03:43:10.477Z,94434.66
2022-10-23T03:46:14.102Z,94433.25
2022-10-23T03:49:17.745Z,94432.25
2022-10-23T03:52:21.442Z,94432.03
2022-10-23T03:55:28.004Z,94430.13
2022-10-23T03:58:32.081Z,94417.84
2022-10-23T04:01:36.136Z,94416.72
2022-10-23T04:04:39.837Z,94415.56
2022-10-23T04:07:43.824Z,94419.22
2022-10-23T04:10:47.437Z,94406.69
2022-10-23T04:13:52.465Z,94409.47
2022-10-23T04:16:56.187Z,94404.91
2022-10-23T04:19:59.905Z,94403.78
2022-10-23T04:23:03.591Z,94398.09
2022-10-23T04:26:10.286Z,94390.19
2022-10-23T04:29:14.040Z,94385.44
2022-10-23T04:32:17.960Z,94374.06
2022-10-23T04:35:21.532Z,94366.97
2022-10-23T04:38:26.970Z,94360.59
2022-10-23T04:41:30.192Z,94357.47
2022-10-23T04:44:34.157Z,94348.63
2022-10-23T04:47:38.428Z,94344.16
2022-10-23T04:50:42.588Z,94346.63
2022-10-23T04:54:06.255Z,94335.66
2022-10-23T04:57:31.177Z,94324.69
2022-10-23T05:00:37.368Z,94314.25
2022-10-23T05:03:41.383Z,94314.78
2022-10-23T05:06:45.534Z,94306.59
2022-10-23T05:10:04.399Z,94299.84
2022-10-23T05:13:15.767Z,94300.38
2022-10-23T05:16:39.281Z,94286.88
2022-10-23T05:19:46.810Z,94280.53
2022-10-23T05:22:52.219Z,94280.47
2022-10-23T05:25:57.616Z,94274.06
2022-10-23T05:29:01.485Z,94271.88
2022-10-23T05:32:07.709Z,94271.31
2022-10-23T05:35:20.290Z,94258.66
2022-10-23T05:38:27.131Z,94248.53
2022-10-23T05:41:31.351Z,94245.88
2022-10-23T05:44:36.094Z,94240.06
2022-10-23T05:48:22.820Z,94230.69
2022-10-23T05:51:51.528Z,94230.63
2022-10-23T05:55:16.731Z,94217.94
2022-10-23T05:58:35.848Z,94202.78
2022-10-23T06:02:05.667Z,94198.75
2022-10-23T06:05:24.249Z,94197.00
2022-10-23T06:08:47.868Z,94201.75
2022-10-23T06:11:52.930Z,94190.59
2022-10-23T06:14:58.840Z,94194.13
2022-10-23T06:18:16.005Z,94183.72
2022-10-23T06:21:32.347Z,94190.59
2022-10-23T06:24:36.236Z,94179.75
2022-10-23T06:27:41.700Z,94183.56
2022-10-23T06:30:46.548Z,94180.91
2022-10-23T06:33:50.602Z,94174.63
2022-10-23T06:36:54.204Z,94174.22
2022-10-23T06:40:18.539Z,94181.13
2022-10-23T06:43:32.939Z,94184.78
2022-10-23T06:46:52.408Z,94179.69
2022-10-23T06:50:15.755Z,94173.72
2022-10-23T06:53:21.643Z,94174.34
2022-10-23T06:56:30.947Z,94176.84
2022-10-23T06:59:36.663Z,94170.22
2022-10-23T07:02:44.287Z,94166.09
2022-10-23T07:05:48.604Z,94156.16
2022-10-23T07:08:52.715Z,94156.28
2022-10-23T07:12:25.377Z,94158.03
2022-10-23T07:15:43.944Z,94149.25
2022-10-23T07:19:00.372Z,94143.59
2022-10-23T07:22:04.093Z,94131.81
2022-10-23T07:25:18.106Z,94136.84
2022-10-23T07:28:21.728Z,94125.28
2022-10-23T07:31:28.341Z,94118.97
2022-10-23T07:34:50.127Z,94111.53
2022-10-23T07:38:06.818Z,94109.03
2022-10-23T07:41:14.485Z,94112.25
2022-10-23T07:44:21.022Z,94110.19
2022-10-23T07:47:26.652Z,94106.56
2022-10-23T07:50:31.019Z,94085.56
2022-10-23T07:53:36.359Z,94097.56
2022-10-23T07:56:52.263Z,94088.66
2022-10-23T08:00:34.357Z,94093.91
2022-10-23T08:03:49.042Z,94083.28
2022-10-23T08:06:53.479Z,94076.34
2022-10-23T08:09:57.623Z,94077.16
2022-10-23T08:13:02.017Z,94070.97
2022-10-23T08:16:27.366Z,94067.41
2022-10-23T08:19:51.088Z,94058.44
2022-10-23T08:22:57.545Z,94061.81
2022-10-23T08:26:05.851Z,94065.25
2022-10-23T08:29:09.915Z,94073.06
2022-10-23T08:32:14.102Z,94062.53
2022-10-23T08:35:39.016Z,94070.75
2022-10-23T08:38:44.409Z,94061.09
2022-10-23T08:41:53.627Z,94061.69
2022-10-23T08:45:06.746Z,94053.09
2022-10-23T08:48:29.288Z,94058.00
2022-10-23T08:52:30.752Z,94053.41
2022-10-23T08:55:38.584Z,94058.00
2022-10-23T08:58:56.575Z,94045.00
2022-10-23T09:02:00.559Z,94056.16
2022-10-23T09:05:04.583Z,94050.63
2022-10-23T09:08:32.405Z,94059.94
2022-10-23T09:11:53.790Z,94053.84
2022-10-23T09:15:18.911Z,94046.06
2022-10-23T09:18:25.117Z,94042.06
2022-10-23T09:21:29.996Z,94039.47
2022-10-23T09:24:34.231Z,94044.16
2022-10-23T09:27:37.518Z,94047.09
2022-10-23T09:30:43.487Z,94045.03
2022-10-23T09:34:02.149Z,94033.34
2022-10-23T09:37:22.082Z,94036.44
2022-10-23T09:40:39.915Z,94032.13
2022-10-23T09:43:43.820Z,94029.72
2022-10-23T09:49:59.350Z,94019.63
2022-10-23T09:53:03.234Z,94024.75
2022-10-23T09:56:25.561Z,94026.03
2022-10-23T09:59:31.160Z,94012.00
2022-10-23T10:02:37.033Z,94012.34
2022-10-23T10:05:43.522Z,94005.28
2022-10-23T10:09:03.451Z,94008.97
2022-10-23T10:12:26.592Z,94003.56
2022-10-23T10:15:53.994Z,94001.69
2022-10-23T10:19:06.945Z,94001.97
2022-10-23T10:22:42.589Z,94000.03
2022-10-23T10:25:52.235Z,93991.56
2022-10-23T10:29:07.402Z,93995.97
2022-10-23T10:32:32.508Z,93993.88
2022-10-23T10:35:58.976Z,93984.63
2022-10-23T10:39:04.967Z,93986.47
2022-10-23T10:42:32.100Z,93989.38
2022-10-23T10:45:45.645Z,93987.25
2022-10-23T10:48:58.139Z,93985.16
2022-10-23T10:52:49.398Z,93981.97
2022-10-23T10:55:56.677Z,93977.69
2022-10-23T10:59:17.289Z,93969.69
2022-10-23T11:02:36.261Z,93973.41
2022-10-23T11:05:45.245Z,93973.06
2022-10-23T11:09:03.850Z,93972.69
2022-10-23T11:12:24.153Z,93970.41
2022-10-23T11:15:40.245Z,93968.91
2022-10-23T11:18:47.142Z,93966.75
2022-10-23T11:22:00.039Z,93965.28
2022-10-23T11:25:54.538Z,93963.13
2022-10-23T11:28:58.411Z,93965.38
2022-10-23T11:32:10.904Z,93963.97
2022-10-23T11:35:31.610Z,93963.63
2022-10-23T11:38:39.759Z,93969.88
2022-10-23T11:42:00.364Z,93967.69
2022-10-23T11:45:04.078Z,93963.69
2022-10-23T11:48:21.974Z,93957.06
2022-10-23T11:51:36.342Z,93960.88
2022-10-23T11:54:40.335Z,93964.22
2022-10-23T11:58:04.905Z,93944.50
2022-10-23T12:01:42.719Z,93960.69
2022-10-23T12:04:52.654Z,93954.13
2022-10-23T12:07:59.823Z,93954.34
2022-10-23T12:11:03.572Z,93956.84
2022-10-23T12:14:39.452Z,93956.53
2022-10-23T12:17:45.063Z,93956.16
2022-10-23T12:21:05.151Z,93957.41
2022-10-23T12:24:29.169Z,93962.63
2022-10-23T12:27:59.076Z,93960.81
2022-10-23T12:31:17.751Z,93958.31
2022-10-23T12:34:33.693Z,93951.13
2022-10-23T12:38:00.730Z,93956.09
2022-10-23T12:41:17.329Z,93944.81
2022-10-23T12:44:24.904Z,93935.72
2022-10-23T12:47:30.631Z,93950.44
2022-10-23T12:50:35.325Z,93949.00
2022-10-23T12:53:39.411Z,93939.91
2022-10-23T12:56:44.660Z,93937.06
2022-10-23T12:59:49.644Z,93934.53
2022-10-23T13:03:01.673Z,93930.53
2022-10-23T13:06:06.114Z,93929.16
2022-10-23T13:09:39.203Z,93923.75
2022-10-23T13:13:05.861Z,93928.84
2022-10-23T13:16:23.407Z,93927.41
2022-10-23T13:19:28.325Z,93922.31
2022-10-23T13:22:31.226Z,93916.13
2022-10-23T13:25:37.485Z,93913.97
2022-10-23T13:28:45.895Z,93911.78
2022-10-23T13:31:50.869Z,93915.78
2022-10-23T13:35:04.057Z,93911.06
2022-10-23T13:38:14.717Z,93903.38
2022-10-23T13:41:20.563Z,93903.44
2022-10-23T13:44:26.097Z,93903.06
2022-10-23T13:47:29.632Z,93898.69
2022-10-23T13:50:33.282Z,93901.25
2022-10-23T13:53:36.784Z,93903.06
2022-10-23T13:56:40.112Z,93903.41
2022-10-23T13:59:43.778Z,93898.31
2022-10-23T14:02:47.758Z,93903.41
2022-10-23T14:05:52.564Z,93902.66
2022-10-23T14:08:56.480Z,93899.41
2022-10-23T14:12:00.392Z,93897.22
2022-10-23T14:15:03.597Z,93904.84
2022-10-23T14:18:08.487Z,93894.28
2022-10-23T14:21:15.640Z,93891.00
2022-10-23T14:24:19.172Z,93894.28
2022-10-23T14:27:23.190Z,93884.47
2022-10-23T14:30:26.813Z,93880.81
2022-10-23T14:33:30.747Z,93877.16
2022-10-23T14:36:43.482Z,93879.69
2022-10-23T14:39:54.563Z,93873.53
2022-10-23T14:42:58.187Z,93864.78
2022-10-23T14:46:10.099Z,93867.31
2022-10-23T14:49:13.617Z,93860.38
2022-10-23T14:52:17.868Z,93859.25
2022-10-23T14:55:21.755Z,93854.13
2022-10-23T14:58:25.737Z,93850.16
2022-10-23T15:01:35.614Z,93850.88
2022-10-23T15:04:40.264Z,93843.63
2022-10-23T15:07:43.446Z,93839.59
2022-10-23T15:10:47.386Z,93841.41
2022-10-23T15:13:51.291Z,93842.16
2022-10-23T15:16:55.297Z,93833.06
2022-10-23T15:19:58.939Z,93832.31
2022-10-23T15:23:03.870Z,93830.81
2022-10-23T15:26:10.694Z,93823.88
2022-10-23T15:29:15.861Z,93823.53
2022-10-23T15:32:19.404Z,93815.47
2022-10-23T15:35:23.391Z,93822.03
2022-10-23T15:38:27.174Z,93816.56
2022-10-23T15:41:33.328Z,93817.28
2022-10-23T15:44:37.125Z,93808.16
2022-10-23T15:47:40.786Z,93801.94
2022-10-23T15:50:44.454Z,93804.50
2022-10-23T15:53:48.587Z,93794.72
2022-10-23T15:56:54.403Z,93790.00
2022-10-23T15:59:58.702Z,93791.81
2022-10-23T16:03:02.694Z,93798.00
2022-10-23T16:06:11.641Z,93792.91
2022-10-23T16:09:16.397Z,93788.19
2022-10-23T16:12:20.314Z,93781.22
2022-10-23T16:15:23.899Z,93784.47
2022-10-23T16:18:27.904Z,93781.97
2022-10-23T16:21:35.049Z,93775.78
2022-10-23T16:24:39.978Z,93777.94
2022-10-23T16:27:43.680Z,93778.63
2022-10-23T16:30:47.790Z,93776.78
2022-10-23T16:33:52.454Z,93781.44
2022-10-23T16:36:56.342Z,93769.41
2022-10-23T16:40:14.176Z,93760.19
2022-10-23T16:43:38.136Z,93765.97
2022-10-23T16:46:59.148Z,93757.94
2022-10-23T16:50:03.164Z,93754.00
2022-10-23T16:53:06.599Z,93753.25
2022-10-23T16:56:12.318Z,93756.81
2022-10-23T16:59:16.101Z,93767.34
2022-10-23T17:02:20.877Z,93757.13
2022-10-23T17:05:24.548Z,93759.28
2022-10-23T17:08:29.274Z,93755.28
2022-10-23T17:11:36.537Z,93749.53
2022-10-23T17:14:40.907Z,93745.91
2022-10-23T17:17:44.882Z,93733.97
2022-10-23T17:20:57.515Z,93742.34
2022-10-23T17:27:06.600Z,93744.53
2022-10-23T17:30:12.787Z,93736.16
2022-10-23T17:33:17.381Z,93728.84
2022-10-23T17:36:22.331Z,93722.59
2022-10-23T17:39:29.026Z,93727.97
2022-10-23T17:42:32.943Z,93725.06
2022-10-23T17:45:37.468Z,93734.06
2022-10-23T17:48:45.036Z,93727.16
2022-10-23T17:51:53.217Z,93719.47
2022-10-23T17:54:56.509Z,93716.28
2022-10-23T17:58:00.401Z,93710.97
2022-10-23T18:01:12.503Z,93713.84
2022-10-23T18:04:18.821Z,93714.53
2022-10-23T18:07:22.063Z,93704.03
2022-10-23T18:10:25.863Z,93694.28
2022-10-23T18:13:29.442Z,93703.34
2022-10-23T18:16:34.647Z,93697.94
2022-10-23T18:19:38.207Z,93693.91
2022-10-23T18:22:42.661Z,93689.91
2022-10-23T18:25:46.658Z,93698.16
2022-10-23T18:28:52.614Z,93706.47
2022-10-23T18:31:56.126Z,93702.78
2022-10-23T18:35:00.120Z,93713.94
2022-10-23T18:38:04.977Z,93701.91
2022-10-23T18:41:09.023Z,93700.13
2022-10-23T18:44:17.899Z,93690.41
2022-10-23T18:47:21.856Z,93683.47
2022-10-23T18:50:25.482Z,93683.75
2022-10-23T18:53:29.918Z,93679.41
2022-10-23T18:56:36.289Z,93674.44
2022-10-23T18:59:40.220Z,93660.34
2022-10-23T19:02:43.847Z,93652.44
2022-10-23T19:05:49.398Z,93632.16
2022-10-23T19:08:53.450Z,93635.78
2022-10-23T19:11:57.411Z,93648.88
2022-10-23T19:15:00.953Z,93653.25
2022-10-23T19:18:07.429Z,93645.63
2022-10-23T19:21:10.615Z,93644.84
2022-10-23T19:24:21.009Z,93632.72
2022-10-23T19:27:26.486Z,93636.94
2022-10-23T19:30:31.050Z,93630.38
2022-10-23T19:33:36.589Z,93625.59
2022-10-23T19:36:40.658Z,93618.59
2022-10-23T19:39:44.282Z,93618.63
2022-10-23T19:42:48.151Z,93611.06
2022-10-23T19:45:51.641Z,93605.91
2022-10-23T19:48:55.157Z,93602.63
2022-10-23T19:51:59.149Z,93589.84
2022-10-23T19:55:04.585Z,93595.66
2022-10-23T19:58:08.848Z,93593.16
2022-10-23T20:01:15.418Z,93587.78
2022-10-23T20:04:20.063Z,93593.56
2022-10-23T20:07:23.715Z,93581.97
2022-10-23T20:10:27.689Z,93584.16
2022-10-23T20:13:31.261Z,93582.34
2022-10-23T20:16:38.350Z,93572.56
2022-10-23T20:19:41.607Z,93572.94
2022-10-23T20:22:45.777Z,93571.44
2022-10-23T20:25:49.713Z,93559.16
2022-10-23T20:28:55.936Z,93550.47
2022-10-23T20:31:59.526Z,93537.78
2022-10-23T20:35:03.107Z,93530.28
2022-10-23T20:38:06.675Z,93537.59
2022-10-23T20:41:10.611Z,93520.59
2022-10-23T20:47:26.539Z,93519.41
2022-10-23T20:50:30.168Z,93521.88
2022-10-23T20:53:35.904Z,93523.34
2022-10-23T20:56:40.363Z,93520.81
2022-10-23T20:59:44.394Z,93523.06
2022-10-23T21:02:49.948Z,93524.53
2022-10-23T21:05:56.060Z,93516.91
2022-10-23T21:09:02.129Z,93514.38
2022-10-23T21:12:07.392Z,93511.50
2022-10-23T21:15:11.197Z,93516.97
2022-10-23T21:18:33.548Z,93511.84
2022-10-23T21:21:41.438Z,93502.06
2022-10-23T21:24:45.658Z,93499.56
2022-10-23T21:27:49.211Z,93502.47
2022-10-23T21:30:53.318Z,93504.31
2022-10-23T21:33:57.176Z,93497.75
2022-10-23T21:37:12.389Z,93497.00
2022-10-23T21:40:16.973Z,93491.94
2022-10-23T21:43:20.561Z,93486.13
2022-10-23T21:46:25.586Z,93489.75
2022-10-23T21:49:29.525Z,93488.22
2022-10-23T21:52:33.253Z,93494.72
2022-10-23T21:55:36.883Z,93488.50
2022-10-23T21:58:40.782Z,93490.56
2022-10-23T22:01:46.503Z,93476.06
2022-10-23T22:04:50.603Z,93490.06
2022-10-23T22:07:54.450Z,93487.47
2022-10-23T22:10:58.636Z,93481.38
2022-10-23T22:14:02.360Z,93484.34
2022-10-23T22:17:07.301Z,93468.13
2022-10-23T22:20:11.096Z,93463.78
2022-10-23T22:23:15.112Z,93462.28
2022-10-23T22:26:36.526Z,93472.34
2022-10-23T22:29:40.825Z,93471.94
2022-10-23T22:32:44.639Z,93461.69
2022-10-23T22:35:48.134Z,93449.78
2022-10-23T22:38:51.945Z,93452.03
2022-10-23T22:41:56.031Z,93449.88
2022-10-23T22:44:59.767Z,93460.41
2022-10-23T22:48:03.705Z,93459.28
2022-10-23T22:51:09.140Z,93462.88
2022-10-23T22:54:13.076Z,93467.63
2022-10-23T22:57:16.684Z,93463.28
2022-10-23T23:00:20.634Z,93457.47
2022-10-23T23:03:24.155Z,93457.06
2022-10-23T23:06:28.419Z,93453.78
2022-10-23T23:09:32.363Z,93455.59
2022-10-23T23:12:37.896Z,93456.31
2022-10-23T23:15:41.736Z,93449.78
2022-10-23T23:18:45.330Z,93446.88
2022-10-23T23:21:48.363Z,93447.22
2022-10-23T23:24:52.380Z,93452.00
2022-10-23T23:27:56.100Z,93454.63
2022-10-23T23:31:07.502Z,93446.75
2022-10-23T23:34:11.150Z,93436.66
2022-10-23T23:37:15.131Z,93437.41
2022-10-23T23:40:19.038Z,93445.41
2022-10-23T23:43:22.397Z,93445.41
2022-10-23T23:46:25.926Z,93435.97
2022-10-23T23:49:29.373Z,93441.69
2022-10-23T23:52:32.397Z,93440.56
2022-10-23T23:55:36.120Z,93438.31
2022-10-23T23:58:39.196Z,93437.13
